Mississippi Star — 9HA2441 — position and weather

sailwx.info

Track history (hours):
 
Tides and Currents Weather Stations Pressure Air Temp Water Temp Dewpoint Dewpoint Depression Visibility Wind Speed Wind Dir Waves Ship Positions

Mississippi Star

Last reported at 2014-Sep-01 06:17 UTC. Time now 2014-Sep-03 00:00 UTC.
Position N 50°20' W 000°59'.

Length 128 m; draft 7.7 m.

Type: Ship. MMSI: 248621000.

Date/timePositionNaut miles runAvg speedWind from/ knotsBaromVisibWave heightAir tempDewpointWater temp
2014-Sep-01 06:17N 50°20' W 000°59'3913.3
2014-Sep-01 03:21N 50°30' E 000°00'1111.6
2014-Sep-01 02:27N 50°33' E 000°16'1010.9
2014-Sep-01 01:33N 50°36' E 000°31'1010.4
2014-Sep-01 00:33N 50°41' E 000°45'1110.8
2014-Aug-31 23:33N 50°47' E 000°59'1212.2
2014-Aug-31 22:33N 50°55' E 001°13'1413.8
2014-Aug-31 21:33N 51°05' E 001°29'1313.4
2014-Aug-31 20:33N 51°13' E 001°46'1211.8
2014-Aug-31 19:33N 51°24' E 001°54'1110.7
2014-Aug-31 18:34N 51°32' E 002°04'1010.4
2014-Aug-31 17:33N 51°40' E 002°15'5410.3
2014-Aug-31 12:19N 52°03' E 003°34'911.7
2014-Aug-31 11:33N 52°02' E 003°49'1010.1
2014-Aug-31 10:33N 51°59' E 004°04'7 4.7
2014-Aug-31 09:10N 51°55' E 004°13'0 0.0
2014-Aug-31 08:16N 51°55' E 004°13'0 0.0
2014-Aug-31 07:31N 51°55' E 004°13'0 0.0
2014-Aug-31 06:28N 51°55' E 004°13'0 0.0
2014-Aug-31 05:25N 51°55' E 004°13'0 0.0
2014-Aug-31 04:25N 51°55' E 004°13'0 0.0
2014-Aug-31 03:22N 51°55' E 004°13'0 0.0
2014-Aug-31 02:13N 51°55' E 004°13'0 0.0
2014-Aug-31 01:28N 51°55' E 004°13'0 0.0
2014-Aug-31 00:25N 51°55' E 004°13'0 0.0
2014-Aug-30 23:25N 51°55' E 004°13'0 0.0
2014-Aug-30 22:25N 51°55' E 004°13'0 0.0
2014-Aug-30 21:25N 51°55' E 004°13'0 0.0
2014-Aug-30 20:30N 51°55' E 004°13'0 0.0
2014-Aug-30 19:34N 51°55' E 004°13'0 0.0
2014-Aug-30 18:34N 51°55' E 004°13'0 0.0
2014-Aug-30 17:33N 51°55' E 004°13'0 0.0
2014-Aug-30 16:31N 51°55' E 004°13'0 0.0
2014-Aug-30 15:09N 51°55' E 004°13'0 0.0
2014-Aug-30 13:21N 51°55' E 004°13'0 0.0
2014-Aug-30 12:33N 51°55' E 004°13'0 0.0
2014-Aug-30 11:33N 51°55' E 004°13'0 0.0
2014-Aug-30 10:24N 51°55' E 004°13'0 0.0
2014-Aug-30 09:30N 51°55' E 004°13'0 0.0
2014-Aug-30 08:30N 51°55' E 004°13'0 0.0
2014-Aug-30 07:10N 51°55' E 004°13'0 0.0
2014-Aug-30 06:33N 51°55' E 004°13'0 0.0
2014-Aug-30 05:34N 51°55' E 004°13'0 0.0
2014-Aug-30 04:15N 51°55' E 004°13'0 0.0
2014-Aug-30 03:30N 51°55' E 004°13'0 0.0
2014-Aug-30 02:31N 51°55' E 004°13'5 5.2
2014-Aug-30 01:34N 51°58' E 004°07'10 9.9
2014-Aug-30 00:33N 52°01' E 003°51'4 3.7
2014-Aug-29 23:29N 51°57' E 003°49'1 1.2
2014-Aug-29 22:34N 51°58' E 003°50'2 1.9
2014-Aug-29 21:32N 51°56' E 003°48'0 0.0
2014-Aug-29 20:23N 51°56' E 003°48'0 0.0
2014-Aug-29 19:17N 51°56' E 003°48'0 0.0
2014-Aug-29 18:23N 51°56' E 003°48'0 0.0
2014-Aug-29 17:23N 51°56' E 003°48'0 0.0
2014-Aug-29 16:17N 51°56' E 003°48'0 0.0
2014-Aug-29 15:26N 51°56' E 003°48'0 0.0
2014-Aug-29 13:17N 51°56' E 003°48'0 0.1
2014-Aug-29 12:32N 51°56' E 003°48'0 0.1
2014-Aug-29 11:32N 51°56' E 003°48'0 0.0
2014-Aug-29 10:32N 51°56' E 003°48'0 0.1
2014-Aug-29 09:32N 51°56' E 003°48'0 0.1
2014-Aug-29 08:29N 51°56' E 003°48'0 0.0
2014-Aug-29 07:32N 51°56' E 003°48'0 0.0
2014-Aug-29 06:32N 51°56' E 003°48'0 0.0
2014-Aug-29 05:29N 51°56' E 003°48'0 0.0
2014-Aug-29 04:26N 51°56' E 003°48'0 0.0
2014-Aug-29 03:32N 51°56' E 003°48'0 0.0
2014-Aug-29 02:32N 51°56' E 003°48'0 0.0
2014-Aug-29 01:26N 51°56' E 003°48'0 0.0
2014-Aug-29 00:32N 51°56' E 003°48'0 0.1
2014-Aug-28 23:28N 51°56' E 003°48'0 0.0
2014-Aug-28 22:32N 51°56' E 003°48'0 0.1
2014-Aug-28 21:31N 51°56' E 003°48'0 0.1
2014-Aug-28 20:29N 51°56' E 003°48'0 0.0
2014-Aug-28 19:32N 51°56' E 003°48'0 0.0
2014-Aug-28 18:26N 51°56' E 003°48'0 0.0
2014-Aug-28 17:28N 51°56' E 003°48'0 0.0
2014-Aug-28 16:32N 51°56' E 003°48'0 0.0
2014-Aug-28 15:32N 51°56' E 003°48'0 0.0
2014-Aug-28 14:28N 51°56' E 003°48'0 0.0
2014-Aug-28 13:31N 51°56' E 003°48'0 0.1
2014-Aug-28 12:28N 51°56' E 003°48'0 0.0
2014-Aug-28 11:31N 51°56' E 003°48'0 0.0
2014-Aug-28 10:31N 51°56' E 003°48'0 0.0
2014-Aug-28 09:31N 51°56' E 003°48'0 0.0
2014-Aug-28 08:31N 51°56' E 003°48'0 0.1
2014-Aug-28 07:31N 51°56' E 003°48'0 0.0
2014-Aug-28 06:28N 51°56' E 003°48'0 0.0
2014-Aug-28 05:31N 51°56' E 003°48'0 0.0
2014-Aug-28 04:31N 51°56' E 003°48'0 0.0
2014-Aug-28 03:31N 51°56' E 003°48'0 0.0
2014-Aug-28 02:31N 51°56' E 003°48'0 0.0
2014-Aug-28 01:31N 51°56' E 003°48'0 0.1
2014-Aug-28 00:31N 51°56' E 003°48'0 0.0
2014-Aug-27 23:31N 51°56' E 003°48'0 0.0
2014-Aug-27 22:31N 51°56' E 003°48'0 0.0
2014-Aug-27 21:31N 51°56' E 003°48'0 0.0
2014-Aug-27 20:31N 51°56' E 003°48'0 0.0
2014-Aug-27 19:31N 51°56' E 003°48'0 0.1
2014-Aug-27 18:28N 51°56' E 003°48'4 4.4
2014-Aug-27 17:33N 51°58' E 003°42'1411.4
2014-Aug-27 16:22N 51°52' E 003°22'5 5.9
2014-Aug-27 15:28N 51°47' E 003°18'0 0.0
2014-Aug-27 14:31N 51°47' E 003°18'0 0.0
2014-Aug-27 11:22N 51°47' E 003°18'0 0.0
2014-Aug-27 10:31N 51°47' E 003°18'0 0.0
2014-Aug-27 09:31N 51°47' E 003°18'0 0.0
2014-Aug-27 08:31N 51°47' E 003°18'0 0.0
2014-Aug-27 07:04N 51°47' E 003°18'0 0.0
2014-Aug-27 06:31N 51°47' E 003°18'0 0.1
2014-Aug-27 05:31N 51°47' E 003°18'0 0.1
2014-Aug-27 04:31N 51°47' E 003°18'0 0.0
2014-Aug-27 03:31N 51°47' E 003°18'0 0.0
2014-Aug-27 02:30N 51°47' E 003°18'0 0.0
2014-Aug-27 01:28N 51°47' E 003°18'0 0.1
2014-Aug-27 00:22N 51°47' E 003°18'0 0.0
2014-Aug-26 23:25N 51°47' E 003°18'0 0.0
2014-Aug-26 22:28N 51°47' E 003°18'0 0.0
2014-Aug-26 21:28N 51°47' E 003°18'0 0.0
2014-Aug-26 20:28N 51°47' E 003°18'0 0.0
2014-Aug-26 19:28N 51°47' E 003°18'0 0.0
2014-Aug-26 18:34N 51°47' E 003°18'0 0.0
2014-Aug-26 17:28N 51°47' E 003°18'0 0.1
2014-Aug-26 16:31N 51°47' E 003°18'0 0.0
2014-Aug-26 15:31N 51°47' E 003°18'0 0.0
2014-Aug-26 14:30N 51°47' E 003°18'0 0.0
2014-Aug-26 13:27N 51°47' E 003°18'0 0.1
2014-Aug-26 12:33N 51°47' E 003°18'0 0.0
2014-Aug-26 11:31N 51°47' E 003°18'0 0.0
2014-Aug-26 10:30N 51°47' E 003°18'0 0.0
2014-Aug-26 09:27N 51°47' E 003°18'0 0.0
2014-Aug-26 08:31N 51°47' E 003°18'0 0.0
2014-Aug-26 07:33N 51°47' E 003°18'0 0.0
2014-Aug-26 06:18N 51°47' E 003°18'0 0.0
2014-Aug-26 05:30N 51°47' E 003°18'0 0.0
2014-Aug-26 04:34N 51°47' E 003°18'0 0.0
2014-Aug-26 03:33N 51°47' E 003°18'0 0.0
2014-Aug-26 02:31N 51°47' E 003°18'0 0.0
2014-Aug-26 01:24N 51°47' E 003°18'0 0.0
2014-Aug-26 00:33N 51°47' E 003°18'0 0.1
2014-Aug-25 23:24N 51°47' E 003°18'0 0.1
2014-Aug-25 22:31N 51°47' E 003°18'0 0.0
2014-Aug-25 21:27N 51°47' E 003°18'0 0.0
2014-Aug-25 17:24N 51°47' E 003°18'0 0.0
2014-Aug-25 16:33N 51°47' E 003°18'0 0.0
2014-Aug-25 15:28N 51°47' E 003°18'0 0.0
2014-Aug-25 14:30N 51°47' E 003°18'0 0.0
2014-Aug-25 12:15N 51°47' E 003°18'0 0.1
2014-Aug-25 11:18N 51°47' E 003°18'0 0.1
2014-Aug-25 10:24N 51°47' E 003°18'0 0.0
2014-Aug-25 09:24N 51°47' E 003°18'0 0.0
2014-Aug-25 08:30N 51°47' E 003°18'0 0.0
2014-Aug-25 07:33N 51°47' E 003°18'0 0.1
2014-Aug-25 06:33N 51°47' E 003°18'0 0.1
2014-Aug-25 05:33N 51°47' E 003°18'0 0.0
2014-Aug-25 04:33N 51°47' E 003°18'0 0.0
2014-Aug-25 03:34N 51°47' E 003°18'0 0.0
2014-Aug-25 02:33N 51°47' E 003°18'0 0.0
2014-Aug-25 01:33N 51°47' E 003°18'0 0.0
2014-Aug-25 00:33N 51°47' E 003°18'0 0.0
2014-Aug-24 23:33N 51°47' E 003°18'0 0.1
2014-Aug-24 22:33N 51°47' E 003°18'0 0.0
2014-Aug-24 21:30N 51°47' E 003°18'0 0.0
2014-Aug-24 17:27N 51°47' E 003°18'0 0.0
2014-Aug-24 04:27N 51°47' E 003°18'0 0.1
2014-Aug-24 03:33N 51°47' E 003°18'0 0.0
2014-Aug-24 02:30N 51°47' E 003°18'0 0.0
2014-Aug-24 01:15N 51°47' E 003°18'0 0.0
2014-Aug-23 23:24N 51°47' E 003°18'0 0.0
2014-Aug-23 03:33N 51°47' E 003°18'0 0.0
2014-Aug-23 02:30N 51°47' E 003°18'0 0.0
2014-Aug-23 01:33N 51°47' E 003°18'0 0.0
2014-Aug-23 00:33N 51°47' E 003°18'2 1.5
2014-Aug-22 23:32N 51°46' E 003°17'1110.9
2014-Aug-22 22:33N 51°36' E 003°23'1111.2
2014-Aug-22 21:33N 51°27' E 003°33'1010.0
2014-Aug-22 20:34N 51°22' E 003°47'10 9.9
2014-Aug-22 19:33N 51°26' E 004°01'1010.2
2014-Aug-22 18:34N 51°21' E 004°16'1 1.1
2014-Aug-22 17:34N 51°21' E 004°17'4 3.6
2014-Aug-22 16:33N 51°17' E 004°20'0 0.0
2014-Aug-22 15:30N 51°17' E 004°20'0 0.0
2014-Aug-22 14:33N 51°17' E 004°20'0 0.0
2014-Aug-22 13:33N 51°17' E 004°20'0 0.0
2014-Aug-22 12:33N 51°17' E 004°20'0 0.0
2014-Aug-22 11:12N 51°17' E 004°20'0 0.0
2014-Aug-22 10:33N 51°17' E 004°20'0 0.0
2014-Aug-22 09:18N 51°17' E 004°20'0 0.0
2014-Aug-22 08:33N 51°17' E 004°20'0 0.0
2014-Aug-22 07:24N 51°17' E 004°20'0 0.0
2014-Aug-22 06:33N 51°17' E 004°20'  
Track history (hours):
 
Tides and Currents Weather Stations Pressure Air Temp Water Temp Dewpoint Dewpoint Depression Visibility Wind Speed Wind Dir Waves Ship Positions

Mississippi Star

Last reported at 2014-Sep-01 06:17 UTC. Time now 2014-Sep-03 00:00 UTC.
Position N 50°20' W 000°59'.

Length 128 m; draft 7.7 m.

Type: Ship. MMSI: 248621000.

Date/timePositionNaut miles runAvg speedWind from/ knotsBaromVisibWave heightAir tempDewpointWater temp
2014-Sep-01 06:17N 50°20' W 000°59'3913.3
2014-Sep-01 03:21N 50°30' E 000°00'1111.6
2014-Sep-01 02:27N 50°33' E 000°16'1010.9
2014-Sep-01 01:33N 50°36' E 000°31'1010.4
2014-Sep-01 00:33N 50°41' E 000°45'1110.8
2014-Aug-31 23:33N 50°47' E 000°59'1212.2
2014-Aug-31 22:33N 50°55' E 001°13'1413.8
2014-Aug-31 21:33N 51°05' E 001°29'1313.4
2014-Aug-31 20:33N 51°13' E 001°46'1211.8
2014-Aug-31 19:33N 51°24' E 001°54'1110.7
2014-Aug-31 18:34N 51°32' E 002°04'1010.4
2014-Aug-31 17:33N 51°40' E 002°15'5410.3
2014-Aug-31 12:19N 52°03' E 003°34'911.7
2014-Aug-31 11:33N 52°02' E 003°49'1010.1
2014-Aug-31 10:33N 51°59' E 004°04'7 4.7
2014-Aug-31 09:10N 51°55' E 004°13'0 0.0
2014-Aug-31 08:16N 51°55' E 004°13'0 0.0
2014-Aug-31 07:31N 51°55' E 004°13'0 0.0
2014-Aug-31 06:28N 51°55' E 004°13'0 0.0
2014-Aug-31 05:25N 51°55' E 004°13'0 0.0
2014-Aug-31 04:25N 51°55' E 004°13'0 0.0
2014-Aug-31 03:22N 51°55' E 004°13'0 0.0
2014-Aug-31 02:13N 51°55' E 004°13'0 0.0
2014-Aug-31 01:28N 51°55' E 004°13'0 0.0
2014-Aug-31 00:25N 51°55' E 004°13'0 0.0
2014-Aug-30 23:25N 51°55' E 004°13'0 0.0
2014-Aug-30 22:25N 51°55' E 004°13'0 0.0
2014-Aug-30 21:25N 51°55' E 004°13'0 0.0
2014-Aug-30 20:30N 51°55' E 004°13'0 0.0
2014-Aug-30 19:34N 51°55' E 004°13'0 0.0
2014-Aug-30 18:34N 51°55' E 004°13'0 0.0
2014-Aug-30 17:33N 51°55' E 004°13'0 0.0
2014-Aug-30 16:31N 51°55' E 004°13'0 0.0
2014-Aug-30 15:09N 51°55' E 004°13'0 0.0
2014-Aug-30 13:21N 51°55' E 004°13'0 0.0
2014-Aug-30 12:33N 51°55' E 004°13'0 0.0
2014-Aug-30 11:33N 51°55' E 004°13'0 0.0
2014-Aug-30 10:24N 51°55' E 004°13'0 0.0
2014-Aug-30 09:30N 51°55' E 004°13'0 0.0
2014-Aug-30 08:30N 51°55' E 004°13'0 0.0
2014-Aug-30 07:10N 51°55' E 004°13'0 0.0
2014-Aug-30 06:33N 51°55' E 004°13'0 0.0
2014-Aug-30 05:34N 51°55' E 004°13'0 0.0
2014-Aug-30 04:15N 51°55' E 004°13'0 0.0
2014-Aug-30 03:30N 51°55' E 004°13'0 0.0
2014-Aug-30 02:31N 51°55' E 004°13'5 5.2
2014-Aug-30 01:34N 51°58' E 004°07'10 9.9
2014-Aug-30 00:33N 52°01' E 003°51'4 3.7
2014-Aug-29 23:29N 51°57' E 003°49'1 1.2
2014-Aug-29 22:34N 51°58' E 003°50'2 1.9
2014-Aug-29 21:32N 51°56' E 003°48'0 0.0
2014-Aug-29 20:23N 51°56' E 003°48'0 0.0
2014-Aug-29 19:17N 51°56' E 003°48'0 0.0
2014-Aug-29 18:23N 51°56' E 003°48'0 0.0
2014-Aug-29 17:23N 51°56' E 003°48'0 0.0
2014-Aug-29 16:17N 51°56' E 003°48'0 0.0
2014-Aug-29 15:26N 51°56' E 003°48'0 0.0
2014-Aug-29 13:17N 51°56' E 003°48'0 0.1
2014-Aug-29 12:32N 51°56' E 003°48'0 0.1
2014-Aug-29 11:32N 51°56' E 003°48'0 0.0
2014-Aug-29 10:32N 51°56' E 003°48'0 0.1
2014-Aug-29 09:32N 51°56' E 003°48'0 0.1
2014-Aug-29 08:29N 51°56' E 003°48'0 0.0
2014-Aug-29 07:32N 51°56' E 003°48'0 0.0
2014-Aug-29 06:32N 51°56' E 003°48'0 0.0
2014-Aug-29 05:29N 51°56' E 003°48'0 0.0
2014-Aug-29 04:26N 51°56' E 003°48'0 0.0
2014-Aug-29 03:32N 51°56' E 003°48'0 0.0
2014-Aug-29 02:32N 51°56' E 003°48'0 0.0
2014-Aug-29 01:26N 51°56' E 003°48'0 0.0
2014-Aug-29 00:32N 51°56' E 003°48'0 0.1
2014-Aug-28 23:28N 51°56' E 003°48'0 0.0
2014-Aug-28 22:32N 51°56' E 003°48'0 0.1
2014-Aug-28 21:31N 51°56' E 003°48'0 0.1
2014-Aug-28 20:29N 51°56' E 003°48'0 0.0
2014-Aug-28 19:32N 51°56' E 003°48'0 0.0
2014-Aug-28 18:26N 51°56' E 003°48'0 0.0
2014-Aug-28 17:28N 51°56' E 003°48'0 0.0
2014-Aug-28 16:32N 51°56' E 003°48'0 0.0
2014-Aug-28 15:32N 51°56' E 003°48'0 0.0
2014-Aug-28 14:28N 51°56' E 003°48'0 0.0
2014-Aug-28 13:31N 51°56' E 003°48'0 0.1
2014-Aug-28 12:28N 51°56' E 003°48'0 0.0
2014-Aug-28 11:31N 51°56' E 003°48'0 0.0
2014-Aug-28 10:31N 51°56' E 003°48'0 0.0
2014-Aug-28 09:31N 51°56' E 003°48'0 0.0
2014-Aug-28 08:31N 51°56' E 003°48'0 0.1
2014-Aug-28 07:31N 51°56' E 003°48'0 0.0
2014-Aug-28 06:28N 51°56' E 003°48'0 0.0
2014-Aug-28 05:31N 51°56' E 003°48'0 0.0
2014-Aug-28 04:31N 51°56' E 003°48'0 0.0
2014-Aug-28 03:31N 51°56' E 003°48'0 0.0
2014-Aug-28 02:31N 51°56' E 003°48'0 0.0
2014-Aug-28 01:31N 51°56' E 003°48'0 0.1
2014-Aug-28 00:31N 51°56' E 003°48'0 0.0
2014-Aug-27 23:31N 51°56' E 003°48'0 0.0
2014-Aug-27 22:31N 51°56' E 003°48'0 0.0
2014-Aug-27 21:31N 51°56' E 003°48'0 0.0
2014-Aug-27 20:31N 51°56' E 003°48'0 0.0
2014-Aug-27 19:31N 51°56' E 003°48'0 0.1
2014-Aug-27 18:28N 51°56' E 003°48'4 4.4
2014-Aug-27 17:33N 51°58' E 003°42'1411.4
2014-Aug-27 16:22N 51°52' E 003°22'5 5.9
2014-Aug-27 15:28N 51°47' E 003°18'0 0.0
2014-Aug-27 14:31N 51°47' E 003°18'0 0.0
2014-Aug-27 11:22N 51°47' E 003°18'0 0.0
2014-Aug-27 10:31N 51°47' E 003°18'0 0.0
2014-Aug-27 09:31N 51°47' E 003°18'0 0.0
2014-Aug-27 08:31N 51°47' E 003°18'0 0.0
2014-Aug-27 07:04N 51°47' E 003°18'0 0.0
2014-Aug-27 06:31N 51°47' E 003°18'0 0.1
2014-Aug-27 05:31N 51°47' E 003°18'0 0.1
2014-Aug-27 04:31N 51°47' E 003°18'0 0.0
2014-Aug-27 03:31N 51°47' E 003°18'0 0.0
2014-Aug-27 02:30N 51°47' E 003°18'0 0.0
2014-Aug-27 01:28N 51°47' E 003°18'0 0.1
2014-Aug-27 00:22N 51°47' E 003°18'0 0.0
2014-Aug-26 23:25N 51°47' E 003°18'0 0.0
2014-Aug-26 22:28N 51°47' E 003°18'0 0.0
2014-Aug-26 21:28N 51°47' E 003°18'0 0.0
2014-Aug-26 20:28N 51°47' E 003°18'0 0.0
2014-Aug-26 19:28N 51°47' E 003°18'0 0.0
2014-Aug-26 18:34N 51°47' E 003°18'0 0.0
2014-Aug-26 17:28N 51°47' E 003°18'0 0.1
2014-Aug-26 16:31N 51°47' E 003°18'0 0.0
2014-Aug-26 15:31N 51°47' E 003°18'0 0.0
2014-Aug-26 14:30N 51°47' E 003°18'0 0.0
2014-Aug-26 13:27N 51°47' E 003°18'0 0.1
2014-Aug-26 12:33N 51°47' E 003°18'0 0.0
2014-Aug-26 11:31N 51°47' E 003°18'0 0.0
2014-Aug-26 10:30N 51°47' E 003°18'0 0.0
2014-Aug-26 09:27N 51°47' E 003°18'0 0.0
2014-Aug-26 08:31N 51°47' E 003°18'0 0.0
2014-Aug-26 07:33N 51°47' E 003°18'0 0.0
2014-Aug-26 06:18N 51°47' E 003°18'0 0.0
2014-Aug-26 05:30N 51°47' E 003°18'0 0.0
2014-Aug-26 04:34N 51°47' E 003°18'0 0.0
2014-Aug-26 03:33N 51°47' E 003°18'0 0.0
2014-Aug-26 02:31N 51°47' E 003°18'0 0.0
2014-Aug-26 01:24N 51°47' E 003°18'0 0.0
2014-Aug-26 00:33N 51°47' E 003°18'0 0.1
2014-Aug-25 23:24N 51°47' E 003°18'0 0.1
2014-Aug-25 22:31N 51°47' E 003°18'0 0.0
2014-Aug-25 21:27N 51°47' E 003°18'0 0.0
2014-Aug-25 17:24N 51°47' E 003°18'0 0.0
2014-Aug-25 16:33N 51°47' E 003°18'0 0.0
2014-Aug-25 15:28N 51°47' E 003°18'0 0.0
2014-Aug-25 14:30N 51°47' E 003°18'0 0.0
2014-Aug-25 12:15N 51°47' E 003°18'0 0.1
2014-Aug-25 11:18N 51°47' E 003°18'0 0.1
2014-Aug-25 10:24N 51°47' E 003°18'0 0.0
2014-Aug-25 09:24N 51°47' E 003°18'0 0.0
2014-Aug-25 08:30N 51°47' E 003°18'0 0.0
2014-Aug-25 07:33N 51°47' E 003°18'0 0.1
2014-Aug-25 06:33N 51°47' E 003°18'0 0.1
2014-Aug-25 05:33N 51°47' E 003°18'0 0.0
2014-Aug-25 04:33N 51°47' E 003°18'0 0.0
2014-Aug-25 03:34N 51°47' E 003°18'0 0.0
2014-Aug-25 02:33N 51°47' E 003°18'0 0.0
2014-Aug-25 01:33N 51°47' E 003°18'0 0.0
2014-Aug-25 00:33N 51°47' E 003°18'0 0.0
2014-Aug-24 23:33N 51°47' E 003°18'0 0.1
2014-Aug-24 22:33N 51°47' E 003°18'0 0.0
2014-Aug-24 21:30N 51°47' E 003°18'0 0.0
2014-Aug-24 17:27N 51°47' E 003°18'0 0.0
2014-Aug-24 04:27N 51°47' E 003°18'0 0.1
2014-Aug-24 03:33N 51°47' E 003°18'0 0.0
2014-Aug-24 02:30N 51°47' E 003°18'0 0.0
2014-Aug-24 01:15N 51°47' E 003°18'0 0.0
2014-Aug-23 23:24N 51°47' E 003°18'0 0.0
2014-Aug-23 03:33N 51°47' E 003°18'0 0.0
2014-Aug-23 02:30N 51°47' E 003°18'0 0.0
2014-Aug-23 01:33N 51°47' E 003°18'0 0.0
2014-Aug-23 00:33N 51°47' E 003°18'2 1.5
2014-Aug-22 23:32N 51°46' E 003°17'1110.9
2014-Aug-22 22:33N 51°36' E 003°23'1111.2
2014-Aug-22 21:33N 51°27' E 003°33'1010.0
2014-Aug-22 20:34N 51°22' E 003°47'10 9.9
2014-Aug-22 19:33N 51°26' E 004°01'1010.2
2014-Aug-22 18:34N 51°21' E 004°16'1 1.1
2014-Aug-22 17:34N 51°21' E 004°17'4 3.6
2014-Aug-22 16:33N 51°17' E 004°20'0 0.0
2014-Aug-22 15:30N 51°17' E 004°20'0 0.0
2014-Aug-22 14:33N 51°17' E 004°20'0 0.0
2014-Aug-22 13:33N 51°17' E 004°20'0 0.0
2014-Aug-22 12:33N 51°17' E 004°20'0 0.0
2014-Aug-22 11:12N 51°17' E 004°20'0 0.0
2014-Aug-22 10:33N 51°17' E 004°20'0 0.0
2014-Aug-22 09:18N 51°17' E 004°20'0 0.0
2014-Aug-22 08:33N 51°17' E 004°20'0 0.0
2014-Aug-22 07:24N 51°17' E 004°20'0 0.0
2014-Aug-22 06:33N 51°17' E 004°20'  

Dump ship's entire track history